Time;durP1;ratioP1;P1;durP2;ratioP2;P2;SDS_P1;SDS_P2;PMS_P1;PMS_P2;Temp;Humidity;BMP_temperature;BMP_pressure;BME280_temperature;BME280_humidity;BME280_pressure;Samples;Min_cycle;Max_cycle;Signal;HPM_P1;HPM_P2
2023/08/23 00:01:49;;;;;;;28.27;19.35;;;24.40;99.90;;;;;;5010179;28;20022;-72
2023/08/23 00:04:15;;;;;;;29.33;19.90;;;24.50;99.90;;;;;;5010037;28;20076;-73
2023/08/23 00:06:41;;;;;;;30.00;20.25;;;24.20;99.90;;;;;;5010644;28;20048;-73
2023/08/23 00:09:07;;;;;;;30.02;20.98;;;;;;;;;;5013358;28;20083;-72
2023/08/23 00:11:34;;;;;;;25.45;19.25;;;;;;;;;;5013576;28;20123;-71
2023/08/23 00:14:02;;;;;;;26.80;18.38;;;;;;;;;;5013521;28;20038;-71
2023/08/23 00:16:28;;;;;;;27.33;19.05;;;24.20;99.90;;;;;;5013718;28;20084;-72
2023/08/23 00:18:54;;;;;;;31.77;19.77;;;;;;;;;;5023289;28;20472;-73
2023/08/23 00:21:20;;;;;;;34.65;20.55;;;24.10;99.90;;;;;;5013566;28;20040;-73
2023/08/23 00:23:47;;;;;;;28.42;20.15;;;;;;;;;;5013063;28;20477;-72
2023/08/23 00:26:13;;;;;;;30.55;19.95;;;24.00;99.90;;;;;;5013038;28;20022;-72
2023/08/23 00:28:40;;;;;;;26.85;20.08;;;;;;;;;;5013509;28;20045;-72
2023/08/23 00:31:06;;;;;;;29.52;20.73;;;23.80;99.90;;;;;;5024367;28;20056;-74
2023/08/23 00:33:34;;;;;;;30.92;21.27;;;23.90;99.90;;;;;;5011870;28;20026;-72
2023/08/23 00:36:00;;;;;;;28.45;20.15;;;23.90;99.90;;;;;;5012888;28;20026;-70
2023/08/23 00:38:26;;;;;;;33.10;21.00;;;23.90;99.90;;;;;;5012076;28;20109;-73
2023/08/23 00:40:51;;;;;;;26.63;19.95;;;23.80;99.90;;;;;;5011498;28;20156;-71
2023/08/23 00:43:17;;;;;;;29.05;20.95;;;23.80;99.90;;;;;;5011388;28;20042;-72
2023/08/23 00:45:43;;;;;;;35.08;21.73;;;23.80;99.90;;;;;;5011448;28;20038;-71
2023/08/23 00:48:12;;;;;;;30.13;22.90;;;23.80;99.90;;;;;;5013158;28;20032;-72
2023/08/23 00:50:40;;;;;;;29.00;21.48;;;23.90;99.90;;;;;;5011817;28;20749;-72
2023/08/23 00:53:07;;;;;;;34.25;21.50;;;23.80;99.90;;;;;;5012690;28;20030;-72
2023/08/23 00:55:34;;;;;;;34.80;21.20;;;23.80;99.90;;;;;;5011392;28;20100;-73
2023/08/23 00:58:00;;;;;;;28.80;21.83;;;23.80;99.90;;;;;;5012679;28;20079;-74
2023/08/23 01:00:27;;;;;;;32.83;22.92;;;23.80;99.90;;;;;;5011480;28;20022;-71
2023/08/23 01:02:53;;;;;;;27.85;22.58;;;23.70;99.90;;;;;;5012431;28;20045;-73
2023/08/23 01:05:25;;;;;;;29.60;22.85;;;23.70;99.90;;;;;;5011450;28;20038;-74
2023/08/23 01:08:00;;;;;;;33.47;22.67;;;23.60;99.90;;;;;;5021054;28;20026;-71
2023/08/23 01:10:39;;;;;;;26.88;21.75;;;23.50;99.90;;;;;;5008931;28;20030;-71
2023/08/23 01:13:23;;;;;;;30.55;22.17;;;23.50;99.90;;;;;;5011120;28;20025;-72
2023/08/23 01:15:51;;;;;;;29.67;22.50;;;23.40;99.90;;;;;;5010806;28;20037;-71
2023/08/23 01:18:18;;;;;;;28.30;21.58;;;23.50;99.90;;;;;;5016183;28;20026;-71
2023/08/23 01:20:49;;;;;;;29.48;22.08;;;23.50;99.90;;;;;;5011146;28;20042;-71
2023/08/23 01:23:16;;;;;;;27.70;22.45;;;23.50;99.90;;;;;;5012079;28;20030;-74
2023/08/23 01:25:49;;;;;;;29.77;23.23;;;23.30;99.90;;;;;;5012455;28;20026;-73
2023/08/23 01:28:18;;;;;;;29.98;23.10;;;23.30;99.90;;;;;;5012057;28;20070;-71
2023/08/23 01:30:44;;;;;;;31.70;21.33;;;23.30;99.90;;;;;;5010662;28;20018;-72
2023/08/23 01:33:36;;;;;;;29.55;23.00;;;23.30;99.90;;;;;;5011068;28;20033;-72
2023/08/23 01:36:17;;;;;;;28.65;22.55;;;23.30;99.90;;;;;;5011819;28;20105;-72
2023/08/23 01:38:45;;;;;;;30.98;22.17;;;23.30;99.90;;;;;;5011921;28;20056;-73
2023/08/23 01:41:12;;;;;;;30.65;21.45;;;23.30;99.90;;;;;;5010682;28;20125;-73
2023/08/23 01:43:38;;;;;;;28.55;21.23;;;23.30;99.90;;;;;;5010347;28;20623;-71
2023/08/23 01:46:04;;;;;;;28.13;21.83;;;23.30;99.90;;;;;;5010757;28;20022;-72
2023/08/23 01:48:30;;;;;;;30.75;22.38;;;;;;;;;;5010314;28;20182;-74
2023/08/23 01:50:56;;;;;;;29.67;24.38;;;23.00;99.90;;;;;;5011871;28;20036;-70
2023/08/23 01:53:22;;;;;;;27.20;22.77;;;;;;;;;;5011904;28;20104;-74
2023/08/23 01:55:48;;;;;;;28.73;23.20;;;23.00;99.90;;;;;;5010386;28;20037;-71
2023/08/23 01:58:14;;;;;;;28.75;23.23;;;22.70;99.90;;;;;;5010199;28;20030;-72
2023/08/23 02:00:48;;;;;;;29.23;22.55;;;23.10;99.90;;;;;;5011971;28;20084;-73
2023/08/23 02:03:14;;;;;;;28.48;22.90;;;23.20;99.90;;;;;;5011567;28;20060;-73
2023/08/23 02:05:40;;;;;;;30.55;24.48;;;23.10;99.90;;;;;;5011726;28;20045;-73
2023/08/23 02:08:06;;;;;;;28.88;21.63;;;23.10;99.90;;;;;;5010235;28;20072;-72
2023/08/23 02:10:33;;;;;;;29.23;23.27;;;23.10;99.90;;;;;;5011163;28;20034;-71
2023/08/23 02:12:59;;;;;;;33.30;23.55;;;23.00;99.90;;;;;;5011526;28;20399;-72
2023/08/23 02:15:25;;;;;;;31.42;24.17;;;23.00;99.90;;;;;;5009531;28;20034;-72
2023/08/23 02:17:52;;;;;;;28.05;22.52;;;22.90;99.90;;;;;;5013406;28;20087;-72
2023/08/23 02:20:18;;;;;;;30.17;24.38;;;22.90;99.90;;;;;;5009956;28;20461;-72
2023/08/23 02:22:44;;;;;;;26.80;22.27;;;22.60;99.90;;;;;;5011238;28;20079;-73
2023/08/23 02:25:10;;;;;;;29.35;22.70;;;23.20;99.90;;;;;;5011042;28;20095;-71
2023/08/23 02:27:35;;;;;;;27.75;23.38;;;22.60;99.90;;;;;;5010910;28;20377;-73
2023/08/23 02:30:01;;;;;;;26.80;21.95;;;22.60;99.90;;;;;;5010885;28;20033;-71
2023/08/23 02:32:27;;;;;;;30.63;23.30;;;22.70;99.90;;;;;;5012034;28;20022;-73
2023/08/23 02:34:53;;;;;;;33.55;23.20;;;22.70;99.90;;;;;;5009866;28;20034;-73
2023/08/23 02:37:19;;;;;;;27.48;21.75;;;22.60;99.90;;;;;;5010883;28;20100;-70
2023/08/23 02:39:44;;;;;;;27.50;22.50;;;22.70;99.90;;;;;;5005886;28;20033;-71
2023/08/23 02:42:10;;;;;;;30.88;23.63;;;22.60;99.90;;;;;;5009027;28;20030;-73
2023/08/23 02:44:36;;;;;;;32.85;22.95;;;22.60;99.90;;;;;;5010910;28;20505;-71
2023/08/23 02:47:02;;;;;;;27.75;22.27;;;22.60;99.90;;;;;;5010939;28;20032;-73
2023/08/23 02:49:28;;;;;;;27.08;22.52;;;22.50;99.90;;;;;;5009817;28;20132;-74
2023/08/23 02:51:54;;;;;;;30.60;22.50;;;22.60;99.90;;;;;;5024206;28;20037;-71
2023/08/23 02:54:19;;;;;;;26.73;21.50;;;22.60;99.90;;;;;;5039928;28;20113;-70
2023/08/23 02:56:45;;;;;;;28.17;22.30;;;22.50;99.90;;;;;;5026825;28;20136;-73
2023/08/23 02:59:11;;;;;;;28.23;22.60;;;22.50;99.90;;;;;;5010868;28;20034;-72
2023/08/23 03:01:37;;;;;;;27.88;23.13;;;22.40;99.90;;;;;;5011443;28;20386;-72
2023/08/23 03:04:03;;;;;;;29.48;22.70;;;22.40;99.90;;;;;;5012087;28;20045;-74
2023/08/23 03:06:29;;;;;;;28.55;22.88;;;22.30;99.90;;;;;;5023683;28;20072;-72
2023/08/23 03:08:55;;;;;;;30.23;22.35;;;;;;;;;;5030354;28;20103;-71
2023/08/23 03:11:21;;;;;;;29.13;22.60;;;22.50;99.90;;;;;;5047084;28;20029;-71
2023/08/23 03:13:46;;;;;;;28.25;23.55;;;22.40;99.90;;;;;;5017527;28;20384;-71
2023/08/23 03:16:14;;;;;;;26.77;22.27;;;22.60;99.90;;;;;;5026809;28;20367;-73
2023/08/23 03:18:39;;;;;;;29.52;21.75;;;22.40;99.90;;;;;;5012023;28;20049;-72
2023/08/23 03:21:05;;;;;;;31.13;22.35;;;22.30;99.90;;;;;;5027275;28;20392;-73
2023/08/23 03:23:32;;;;;;;27.35;22.40;;;22.30;99.90;;;;;;5010865;28;20041;-73
2023/08/23 03:25:58;;;;;;;32.17;23.75;;;;;;;;;;5029025;28;20091;-74
2023/08/23 03:28:24;;;;;;;29.55;22.08;;;22.30;99.90;;;;;;5031755;28;20029;-72
2023/08/23 03:30:49;;;;;;;30.83;23.58;;;22.30;99.90;;;;;;5031670;28;20033;-72
2023/08/23 03:33:16;;;;;;;32.08;23.58;;;22.30;99.90;;;;;;5028688;28;20067;-73
2023/08/23 03:35:42;;;;;;;30.20;21.92;;;;;;;;;;5030796;28;20384;-74
2023/08/23 03:38:08;;;;;;;30.15;22.15;;;22.00;99.90;;;;;;5031678;28;20028;-73
2023/08/23 03:40:38;;;;;;;31.23;23.77;;;22.00;99.90;;;;;;5029518;28;20030;-72
2023/08/23 03:43:04;;;;;;;29.65;23.00;;;22.00;99.90;;;;;;5032381;28;20053;-73
2023/08/23 03:45:31;;;;;;;30.95;24.35;;;22.10;99.90;;;;;;5027340;28;20484;-73
2023/08/23 03:47:56;;;;;;;29.65;22.77;;;22.10;99.90;;;;;;5035170;28;20112;-72
2023/08/23 03:50:22;;;;;;;30.20;24.38;;;22.20;99.90;;;;;;5012537;28;20112;-74
2023/08/23 03:52:48;;;;;;;32.03;25.83;;;22.10;99.90;;;;;;5035129;28;20051;-72
2023/08/23 03:55:14;;;;;;;33.83;24.92;;;22.30;99.90;;;;;;5027163;28;20018;-72
2023/08/23 03:57:41;;;;;;;38.35;25.20;;;22.30;99.90;;;;;;5028631;28;20476;-73
2023/08/23 04:00:07;;;;;;;29.50;25.23;;;22.30;99.90;;;;;;5033720;28;20084;-71
2023/08/23 04:02:42;;;;;;;32.00;25.90;;;22.30;99.90;;;;;;5027619;28;20076;-72
2023/08/23 04:05:11;;;;;;;31.77;26.48;;;22.30;99.90;;;;;;5013598;28;20046;-72
2023/08/23 04:07:39;;;;;;;32.35;26.50;;;22.30;99.90;;;;;;5013962;28;20022;-72
2023/08/23 04:10:06;;;;;;;37.03;27.38;;;22.50;99.90;;;;;;5015926;28;20034;-72
2023/08/23 04:12:31;;;;;;;38.72;29.02;;;22.70;99.90;;;;;;5034966;28;20029;-73
2023/08/23 04:14:57;;;;;;;30.73;26.33;;;22.80;99.90;;;;;;5034272;28;20038;-73
2023/08/23 04:17:26;;;;;;;33.22;26.25;;;23.00;99.90;;;;;;5018354;28;20029;-72
2023/08/23 04:19:52;;;;;;;35.63;26.40;;;23.20;99.90;;;;;;5013473;28;20040;-73
2023/08/23 04:22:18;;;;;;;35.72;25.45;;;23.40;99.90;;;;;;5028261;28;20038;-73
2023/08/23 04:24:43;;;;;;;31.95;24.58;;;23.80;99.90;;;;;;5033159;28;20095;-73
2023/08/23 04:27:09;;;;;;;28.35;23.35;;;24.00;99.90;;;;;;5028330;28;20029;-73
2023/08/23 04:29:37;;;;;;;31.40;23.17;;;24.30;99.90;;;;;;5060760;28;20025;-73
2023/08/23 04:32:09;;;;;;;28.67;21.77;;;24.70;99.90;;;;;;5034060;28;20389;-73
2023/08/23 04:34:36;;;;;;;29.23;21.45;;;25.00;99.90;;;;;;5049869;28;20025;-74
2023/08/23 04:37:04;;;;;;;30.17;20.08;;;25.40;99.90;;;;;;5032767;28;20087;-74
2023/08/23 04:39:30;;;;;;;33.15;21.70;;;25.80;99.90;;;;;;5023061;28;20107;-74
2023/08/23 04:41:56;;;;;;;30.33;20.95;;;26.00;99.90;;;;;;5032596;28;20420;-74
2023/08/23 04:44:22;;;;;;;27.05;20.73;;;26.30;99.90;;;;;;5049606;28;20038;-75
2023/08/23 04:46:48;;;;;;;25.13;20.27;;;;;;;;;;5034120;28;20582;-75
2023/08/23 04:49:14;;;;;;;28.42;20.48;;;26.00;99.90;;;;;;5030502;28;20027;-72
2023/08/23 04:51:41;;;;;;;29.05;20.15;;;26.40;99.90;;;;;;5020730;28;20029;-72
2023/08/23 04:54:07;;;;;;;26.27;19.90;;;26.90;99.90;;;;;;5032326;28;20477;-72
2023/08/23 04:56:34;;;;;;;32.58;20.70;;;27.40;99.90;;;;;;5032529;28;20025;-76
2023/08/23 04:58:59;;;;;;;26.33;20.58;;;28.60;99.90;;;;;;5028308;28;20017;-75
2023/08/23 05:01:26;;;;;;;26.27;19.92;;;28.10;99.90;;;;;;5029427;28;20025;-72
2023/08/23 05:03:51;;;;;;;23.98;18.40;;;28.40;99.90;;;;;;5032401;28;20041;-74
2023/08/23 05:06:17;;;;;;;26.45;18.50;;;28.70;99.90;;;;;;5032682;28;20017;-72
2023/08/23 05:08:44;;;;;;;23.30;18.13;;;28.90;99.90;;;;;;5033510;28;20017;-73
2023/08/23 05:11:15;;;;;;;29.38;19.85;;;29.00;99.70;;;;;;5051295;28;20442;-76
2023/08/23 05:13:41;;;;;;;30.30;19.42;;;28.90;99.50;;;;;;5024781;28;20109;-76
2023/08/23 05:16:07;;;;;;;28.88;21.02;;;27.90;99.90;;;;;;5029828;28;20054;-72
2023/08/23 05:18:34;;;;;;;27.92;20.95;;;27.40;99.90;;;;;;5032078;28;20029;-74
2023/08/23 05:21:02;;;;;;;30.52;22.50;;;27.00;99.90;;;;;;5036922;28;20034;-75
2023/08/23 05:23:29;;;;;;;29.73;21.23;;;27.00;99.90;;;;;;5024790;28;20018;-72
2023/08/23 05:25:55;;;;;;;29.13;22.60;;;26.80;99.90;;;;;;5048675;28;20369;-75
2023/08/23 05:28:22;;;;;;;34.03;22.20;;;26.80;99.90;;;;;;5032186;28;20614;-75
2023/08/23 05:30:50;;;;;;;29.15;22.90;;;26.70;99.90;;;;;;5040301;28;20129;-75
2023/08/23 05:33:21;;;;;;;30.73;24.10;;;26.80;99.90;;;;;;5018631;28;20068;-73
2023/08/23 05:35:47;;;;;;;29.08;22.55;;;26.80;99.90;;;;;;5015432;28;20104;-75
2023/08/23 05:38:13;;;;;;;38.53;24.20;;;26.90;99.90;;;;;;5010403;28;20065;-72
2023/08/23 05:40:39;;;;;;;33.83;24.15;;;26.80;99.90;;;;;;5015994;28;20022;-75
2023/08/23 05:43:06;;;;;;;30.73;23.83;;;27.00;99.90;;;;;;5010461;28;20104;-75
2023/08/23 05:45:32;;;;;;;26.40;22.67;;;27.20;99.90;;;;;;5040003;28;20049;-73
2023/08/23 05:48:00;;;;;;;30.85;23.17;;;27.50;99.90;;;;;;5012965;28;20486;-72
2023/08/23 05:50:26;;;;;;;30.35;21.48;;;27.30;99.90;;;;;;5025520;28;20033;-73
2023/08/23 05:52:52;;;;;;;39.58;21.35;;;27.40;99.90;;;;;;5026422;28;20017;-75
2023/08/23 05:55:17;;;;;;;30.75;20.42;;;27.60;99.90;;;;;;5025182;28;20029;-72
2023/08/23 05:57:44;;;;;;;26.75;19.17;;;27.60;99.90;;;;;;5032793;28;20021;-72
2023/08/23 06:00:12;;;;;;;28.23;20.33;;;27.70;99.90;;;;;;5032701;28;20036;-76
2023/08/23 06:02:43;;;;;;;25.98;19.67;;;27.50;99.90;;;;;;5032434;28;20027;-75
2023/08/23 06:05:13;;;;;;;26.90;20.23;;;27.70;99.90;;;;;;5031835;28;20095;-75
2023/08/23 06:07:40;;;;;;;25.00;20.35;;;27.80;99.90;;;;;;5032730;28;20029;-76
2023/08/23 06:10:06;;;;;;;29.35;19.23;;;27.70;99.90;;;;;;5032636;28;20032;-75
2023/08/23 06:12:32;;;;;;;25.15;20.15;;;27.90;99.90;;;;;;5032834;28;20013;-75
2023/08/23 06:14:58;;;;;;;26.75;19.17;;;27.60;99.90;;;;;;5032218;28;20040;-75
2023/08/23 06:17:25;;;;;;;26.65;19.30;;;27.70;99.90;;;;;;5030857;28;20068;-72
2023/08/23 06:19:51;;;;;;;30.50;19.23;;;27.80;99.90;;;;;;5032744;28;20080;-72
2023/08/23 06:22:17;;;;;;;24.58;18.17;;;27.90;99.90;;;;;;5032227;28;20029;-72
2023/08/23 06:24:43;;;;;;;24.92;18.40;;;28.20;99.90;;;;;;5032185;28;20420;-75
2023/08/23 06:27:08;;;;;;;26.60;19.48;;;28.40;99.90;;;;;;5031664;28;20037;-74
2023/08/23 06:29:37;;;;;;;22.10;18.13;;;28.50;99.90;;;;;;5032028;28;20033;-72
2023/08/23 06:32:03;;;;;;;26.33;18.33;;;28.60;99.90;;;;;;5031822;28;20053;-72
2023/08/23 06:34:29;;;;;;;23.23;17.48;;;28.50;99.90;;;;;;5032324;28;20056;-72
2023/08/23 06:36:55;;;;;;;22.90;16.58;;;28.80;99.90;;;;;;5032121;28;20537;-73
2023/08/23 06:39:21;;;;;;;25.38;15.80;;;;;;;;;;5032533;28;20053;-75
2023/08/23 06:41:47;;;;;;;22.92;16.77;;;29.10;99.90;;;;;;5031761;28;20469;-75
2023/08/23 06:44:13;;;;;;;19.50;14.25;;;;;;;;;;5031715;28;20141;-75
2023/08/23 06:46:39;;;;;;;20.48;15.32;;;29.20;99.90;;;;;;5031922;28;20030;-75
2023/08/23 06:49:04;;;;;;;21.08;14.65;;;29.40;99.90;;;;;;5030925;28;20032;-72
2023/08/23 06:51:32;;;;;;;23.75;15.48;;;29.70;99.90;;;;;;5031850;28;20075;-74
2023/08/23 06:53:58;;;;;;;28.08;14.70;;;;;;;;;;5027465;28;20053;-75
2023/08/23 06:56:26;;;;;;;18.70;14.05;;;30.00;99.20;;;;;;5012438;28;20401;-73
2023/08/23 06:58:52;;;;;;;19.65;13.48;;;30.00;97.80;;;;;;5012654;28;20033;-76
2023/08/23 07:01:20;;;;;;;21.10;14.18;;;30.20;98.50;;;;;;5012232;28;20030;-72
2023/08/23 07:03:46;;;;;;;19.77;14.77;;;30.10;98.60;;;;;;5011583;28;20042;-75
2023/08/23 07:06:13;;;;;;;22.40;15.85;;;30.10;97.00;;;;;;5021007;28;20491;-73
2023/08/23 07:08:40;;;;;;;22.00;15.23;;;29.90;99.70;;;;;;5031453;28;20056;-75
2023/08/23 07:11:06;;;;;;;21.38;15.50;;;30.10;98.50;;;;;;5031571;28;20030;-75
2023/08/23 07:13:31;;;;;;;26.02;15.02;;;30.40;97.30;;;;;;5031260;28;20083;-75
2023/08/23 07:15:57;;;;;;;21.75;15.73;;;30.40;97.40;;;;;;5032476;28;20033;-73
2023/08/23 07:18:23;;;;;;;21.08;15.57;;;30.20;97.60;;;;;;5035850;28;20033;-74
2023/08/23 07:20:49;;;;;;;20.58;15.20;;;30.50;97.00;;;;;;5035525;28;20037;-72
2023/08/23 07:23:15;;;;;;;24.00;15.30;;;;;;;;;;5035998;28;20476;-75
2023/08/23 07:25:42;;;;;;;21.15;15.30;;;30.40;97.90;;;;;;5035469;28;20480;-75
2023/08/23 07:28:08;;;;;;;20.35;15.75;;;30.60;96.80;;;;;;5035837;28;20045;-75
2023/08/23 07:30:34;;;;;;;23.17;16.83;;;30.80;97.90;;;;;;5035100;28;20384;-72
2023/08/23 07:33:00;;;;;;;21.75;16.13;;;30.70;95.50;;;;;;5035600;28;20021;-72
2023/08/23 07:35:26;;;;;;;23.55;16.45;;;31.00;96.60;;;;;;5035261;28;20452;-72
2023/08/23 07:37:52;;;;;;;22.35;16.55;;;31.00;96.80;;;;;;5035477;28;20025;-72
2023/08/23 07:40:18;;;;;;;18.55;14.95;;;;;;;;;;5035339;28;20338;-76
2023/08/23 07:42:45;;;;;;;24.60;15.63;;;;;;;;;;5035038;28;20091;-73
2023/08/23 07:45:11;;;;;;;22.83;14.93;;;31.60;94.80;;;;;;5035473;28;20045;-73
2023/08/23 07:47:37;;;;;;;20.30;14.38;;;31.60;94.20;;;;;;5034980;28;20041;-75
2023/08/23 07:50:03;;;;;;;20.30;13.85;;;;;;;;;;5035403;28;20048;-76
2023/08/23 07:52:29;;;;;;;31.05;14.70;;;32.00;93.70;;;;;;5035033;28;20029;-74
2023/08/23 07:54:55;;;;;;;20.63;13.50;;;32.10;93.70;;;;;;5035298;28;20443;-75
2023/08/23 07:57:21;;;;;;;24.80;13.90;;;32.30;92.90;;;;;;5035495;28;20041;-75
2023/08/23 07:59:47;;;;;;;20.42;13.10;;;;;;;;;;5034513;28;20029;-76
2023/08/23 08:02:13;;;;;;;17.83;12.80;;;;;;;;;;5035103;28;20040;-76
2023/08/23 08:04:39;;;;;;;17.88;12.75;;;32.80;93.00;;;;;;5033431;28;20404;-76
2023/08/23 08:07:05;;;;;;;19.88;12.52;;;32.90;91.80;;;;;;5035116;28;20102;-72
2023/08/23 08:09:31;;;;;;;19.05;12.18;;;32.70;90.60;;;;;;5034862;28;20116;-72
2023/08/23 08:11:57;;;;;;;18.73;12.93;;;32.80;94.90;;;;;;5035175;28;20515;-72
2023/08/23 08:14:22;;;;;;;23.83;14.88;;;32.40;97.50;;;;;;5034432;28;20096;-76
2023/08/23 08:16:48;;;;;;;18.45;12.57;;;32.30;90.70;;;;;;5034919;28;20074;-77
2023/08/23 08:19:14;;;;;;;18.05;13.35;;;32.80;96.80;;;;;;5034447;28;20449;-76
2023/08/23 08:21:40;;;;;;;16.88;13.55;;;32.50;96.50;;;;;;5034620;28;20051;-72
2023/08/23 08:24:07;;;;;;;21.25;13.77;;;;;;;;;;5034343;28;20044;-75
2023/08/23 08:26:33;;;;;;;25.15;13.18;;;33.40;94.10;;;;;;5034458;28;20040;-75
2023/08/23 08:28:59;;;;;;;18.15;13.20;;;33.50;93.50;;;;;;5033325;28;20013;-72
2023/08/23 08:31:25;;;;;;;16.67;12.20;;;33.70;90.60;;;;;;5034500;28;20584;-76
2023/08/23 08:33:51;;;;;;;23.15;14.27;;;34.00;90.30;;;;;;5034459;28;20160;-75
2023/08/23 08:36:16;;;;;;;19.40;13.75;;;34.00;88.40;;;;;;5034313;28;20033;-75
2023/08/23 08:38:42;;;;;;;18.42;14.02;;;34.10;87.80;;;;;;5034411;28;20028;-73
2023/08/23 08:41:09;;;;;;;20.65;12.88;;;34.00;86.50;;;;;;5034055;28;20025;-75
2023/08/23 08:43:36;;;;;;;17.80;13.05;;;34.00;88.60;;;;;;5033746;28;20393;-73
2023/08/23 08:46:06;;;;;;;28.25;13.82;;;34.10;87.00;;;;;;5034206;28;20124;-72
2023/08/23 08:48:32;;;;;;;18.65;13.65;;;34.10;85.70;;;;;;5033978;28;20021;-77
2023/08/23 08:50:59;;;;;;;17.98;13.13;;;33.90;85.60;;;;;;5034388;28;20060;-72
2023/08/23 08:53:27;;;;;;;22.90;12.68;;;33.70;85.20;;;;;;5034246;28;20427;-72
2023/08/23 08:55:53;;;;;;;18.52;12.55;;;33.60;86.20;;;;;;5034261;28;20022;-76
2023/08/23 08:58:21;;;;;;;18.13;12.70;;;33.70;87.90;;;;;;5033670;28;20025;-75
2023/08/23 09:00:49;;;;;;;20.90;14.07;;;33.90;86.90;;;;;;5034412;28;20075;-73
2023/08/23 09:03:19;;;;;;;18.65;13.45;;;34.10;87.70;;;;;;5033558;28;20357;-75
2023/08/23 09:05:50;;;;;;;27.27;15.25;;;34.20;91.00;;;;;;5033900;28;20069;-76
2023/08/23 09:08:16;;;;;;;19.52;14.13;;;34.10;92.60;;;;;;5033812;28;20372;-77
2023/08/23 09:10:42;;;;;;;21.02;14.23;;;33.60;89.70;;;;;;5033384;28;20041;-72
2023/08/23 09:13:08;;;;;;;21.33;13.68;;;33.80;90.10;;;;;;5033832;28;20044;-72
2023/08/23 09:15:34;;;;;;;22.60;13.88;;;33.70;90.30;;;;;;5033411;28;20033;-72
2023/08/23 09:18:00;;;;;;;28.17;13.38;;;33.70;90.90;;;;;;5033653;28;20026;-74
2023/08/23 09:20:26;;;;;;;30.42;12.52;;;33.80;91.00;;;;;;5033582;28;20491;-76
2023/08/23 09:22:52;;;;;;;17.08;11.55;;;33.60;88.80;;;;;;5033462;28;20029;-76
2023/08/23 09:25:19;;;;;;;16.10;10.40;;;33.80;89.60;;;;;;5033304;28;20037;-76
2023/08/23 09:27:45;;;;;;;16.67;10.65;;;33.80;86.70;;;;;;5033279;28;20021;-76
2023/08/23 09:30:12;;;;;;;14.02;10.40;;;33.90;87.90;;;;;;5033703;28;20033;-77
2023/08/23 09:32:39;;;;;;;29.67;10.40;;;34.00;87.80;;;;;;5033036;28;20029;-76
2023/08/23 09:35:12;;;;;;;14.05;9.85;;;33.90;88.40;;;;;;5033240;28;20029;-75
2023/08/23 09:37:44;;;;;;;14.38;9.98;;;33.90;90.40;;;;;;5033098;28;20025;-75
2023/08/23 09:40:19;;;;;;;12.95;8.98;;;34.10;89.60;;;;;;5033223;28;20022;-76
2023/08/23 09:42:46;;;;;;;15.55;8.77;;;33.90;90.20;;;;;;5032787;28;20041;-76
2023/08/23 09:45:23;;;;;;;13.95;9.10;;;34.10;90.70;;;;;;5032678;28;20127;-74
2023/08/23 09:47:56;;;;;;;14.27;10.20;;;34.10;89.80;;;;;;5033080;28;20026;-75
2023/08/23 09:50:23;;;;;;;15.63;9.77;;;34.00;89.80;;;;;;5032738;28;20017;-76
2023/08/23 09:52:57;;;;;;;15.88;9.48;;;34.10;90.00;;;;;;5033054;28;20060;-76
2023/08/23 09:55:24;;;;;;;14.52;9.70;;;34.10;88.60;;;;;;5032816;28;20026;-76
2023/08/23 09:57:53;;;;;;;15.95;11.27;;;34.10;88.50;;;;;;5032615;28;20112;-75
2023/08/23 10:00:21;;;;;;;20.73;12.48;;;34.30;88.60;;;;;;5032930;28;20017;-76
2023/08/23 10:02:47;;;;;;;17.17;12.30;;;34.30;91.50;;;;;;5032570;28;20044;-77
2023/08/23 10:05:13;;;;;;;18.20;12.95;;;34.50;93.40;;;;;;5032582;28;20045;-76
2023/08/23 10:07:42;;;;;;;19.20;13.82;;;34.20;94.20;;;;;;5032285;28;20468;-75
2023/08/23 10:10:10;;;;;;;17.35;12.48;;;34.30;94.10;;;;;;5032758;28;20049;-76
2023/08/23 10:12:43;;;;;;;16.98;12.73;;;34.60;95.70;;;;;;5032145;28;20026;-75
2023/08/23 10:15:13;;;;;;;15.60;12.70;;;34.40;94.90;;;;;;5032535;28;20040;-73
2023/08/23 10:17:39;;;;;;;16.15;11.73;;;;;;;;;;5032498;28;20097;-76
2023/08/23 10:20:07;;;;;;;17.20;13.63;;;34.20;76.20;;;;;;5032368;28;20037;-77
2023/08/23 10:22:33;;;;;;;16.17;11.55;;;33.90;77.00;;;;;;5032156;28;20021;-76
2023/08/23 10:25:00;;;;;;;18.98;14.45;;;34.10;77.00;;;;;;5032078;28;20098;-76
2023/08/23 10:27:26;;;;;;;18.05;12.43;;;34.20;76.10;;;;;;5032415;28;20017;-76
2023/08/23 10:29:52;;;;;;;16.50;12.73;;;34.30;75.80;;;;;;5032140;28;20033;-77
2023/08/23 10:32:18;;;;;;;20.17;12.75;;;34.50;76.20;;;;;;5032199;28;20025;-75
2023/08/23 10:34:44;;;;;;;14.75;11.95;;;34.40;75.80;;;;;;5032008;28;20059;-75
2023/08/23 10:37:15;;;;;;;15.30;11.27;;;34.50;76.10;;;;;;5032244;28;20013;-75
2023/08/23 10:39:51;;;;;;;15.35;11.73;;;;;;;;;;5032021;28;20040;-76
2023/08/23 10:42:19;;;;;;;17.15;11.50;;;34.60;90.40;;;;;;5031835;28;20480;-76
2023/08/23 10:44:47;;;;;;;17.20;11.80;;;34.60;91.10;;;;;;5032024;28;20101;-76
2023/08/23 10:47:15;;;;;;;18.70;11.85;;;34.40;91.40;;;;;;5031891;28;20017;-76
2023/08/23 10:49:41;;;;;;;18.58;11.63;;;34.60;91.20;;;;;;5032264;28;20541;-76
2023/08/23 10:52:07;;;;;;;20.13;11.85;;;34.60;91.20;;;;;;5031960;28;20026;-76
2023/08/23 10:54:36;;;;;;;16.17;11.35;;;34.50;91.40;;;;;;5023284;28;20056;-76
2023/08/23 10:57:02;;;;;;;18.17;12.45;;;34.50;91.20;;;;;;5010987;28;20022;-73
2023/08/23 10:59:28;;;;;;;17.17;11.57;;;34.60;91.70;;;;;;5012488;28;20076;-76
2023/08/23 11:01:55;;;;;;;15.25;10.88;;;34.60;91.70;;;;;;5012344;28;20026;-76
2023/08/23 11:04:23;;;;;;;14.57;10.63;;;34.60;91.40;;;;;;5012222;28;20042;-77
2023/08/23 11:06:50;;;;;;;15.15;11.07;;;34.50;90.60;;;;;;5025717;28;20029;-76
2023/08/23 11:09:17;;;;;;;16.25;11.82;;;34.60;91.40;;;;;;5031588;28;20033;-74
2023/08/23 11:11:43;;;;;;;19.23;11.80;;;34.70;91.90;;;;;;5031879;28;20021;-76
2023/08/23 11:14:09;;;;;;;15.32;11.27;;;34.70;91.90;;;;;;5031651;28;20058;-75
2023/08/23 11:16:35;;;;;;;14.18;10.30;;;34.60;92.40;;;;;;5031637;28;20021;-75
2023/08/23 11:19:05;;;;;;;19.50;10.65;;;34.40;91.10;;;;;;5031881;28;20037;-76
2023/08/23 11:21:32;;;;;;;12.87;9.67;;;34.50;91.20;;;;;;5032330;28;20093;-74
2023/08/23 11:24:01;;;;;;;13.63;8.95;;;34.40;72.50;;;;;;5031665;28;20504;-75
2023/08/23 11:26:27;;;;;;;25.90;10.40;;;34.30;74.00;;;;;;5031631;28;20041;-76
2023/08/23 11:28:53;;;;;;;23.52;11.05;;;34.40;74.90;;;;;;5031647;28;20021;-76
2023/08/23 11:31:21;;;;;;;17.55;11.60;;;34.40;74.80;;;;;;5031635;28;20412;-76
2023/08/23 11:33:47;;;;;;;15.43;10.93;;;34.50;75.10;;;;;;5031725;28;20083;-75
2023/08/23 11:36:18;;;;;;;15.95;10.48;;;34.50;74.50;;;;;;5031638;28;20061;-76
2023/08/23 11:38:46;;;;;;;18.75;11.10;;;34.30;72.60;;;;;;5031404;28;20041;-75
2023/08/23 11:41:12;;;;;;;14.50;10.55;;;34.40;74.20;;;;;;5031819;28;20025;-77
2023/08/23 11:43:44;;;;;;;13.70;9.88;;;34.40;74.10;;;;;;5031115;28;20044;-76
2023/08/23 11:46:09;;;;;;;17.98;10.45;;;34.30;73.00;;;;;;5031439;28;20485;-76
2023/08/23 11:48:36;;;;;;;16.00;10.43;;;34.40;74.20;;;;;;5031247;28;20072;-72
2023/08/23 11:51:03;;;;;;;16.40;9.55;;;34.50;72.30;;;;;;5031744;28;20033;-76
2023/08/23 11:53:28;;;;;;;13.63;9.93;;;34.60;73.60;;;;;;5031530;28;20022;-75
2023/08/23 11:55:57;;;;;;;15.73;10.65;;;34.70;71.40;;;;;;5031631;28;20376;-76
2023/08/23 11:58:23;;;;;;;14.82;10.30;;;34.70;73.90;;;;;;5031400;28;20030;-76
2023/08/23 12:00:49;;;;;;;16.48;10.85;;;34.40;73.00;;;;;;5031253;28;20029;-76
2023/08/23 12:03:16;;;;;;;16.85;11.25;;;34.70;73.20;;;;;;5033025;28;20067;-74
2023/08/23 12:05:42;;;;;;;16.67;10.95;;;34.80;72.60;;;;;;5035011;28;20037;-77
2023/08/23 12:08:08;;;;;;;21.27;11.43;;;34.20;73.20;;;;;;5035399;28;20021;-75
2023/08/23 12:10:34;;;;;;;14.30;9.32;;;34.20;71.00;;;;;;5034908;28;20029;-75
2023/08/23 12:13:00;;;;;;;15.68;9.77;;;34.50;69.50;;;;;;5034650;28;20495;-76
2023/08/23 12:15:26;;;;;;;20.58;10.95;;;34.60;70.70;;;;;;5034709;28;20026;-76
2023/08/23 12:17:55;;;;;;;11.27;7.90;;;34.60;72.40;;;;;;5034683;28;20029;-76
2023/08/23 12:20:21;;;;;;;12.05;8.55;;;34.70;67.00;;;;;;5034684;28;20025;-73
2023/08/23 12:22:47;;;;;;;17.00;8.70;;;;;;;;;;5034441;28;20032;-73
2023/08/23 12:25:14;;;;;;;13.35;8.48;;;34.60;90.10;;;;;;5034843;28;20068;-76
2023/08/23 12:27:40;;;;;;;15.60;9.50;;;34.80;68.00;;;;;;5034340;28;20025;-76
2023/08/23 12:30:09;;;;;;;14.13;9.15;;;;;;;;;;5034411;28;20389;-75
2023/08/23 12:32:35;;;;;;;12.63;8.98;;;;;;;;;;5034185;28;20040;-76
2023/08/23 12:35:04;;;;;;;15.85;9.73;;;35.20;91.90;;;;;;5035097;28;20013;-75